Aérodrome :
LOGIN :

S'inscrire | Disclaimer

   EN    FR    IT 

 










Légende :    VFR   VFR Marginal   IFR   IFR Intensif   IFR Très Intensif
Visi : 
Plafond : 
>= 8 km
>= 3000ft
5 à 8 km
1000 à 3000 ft
1500m à 5 km
500 à 1000 ft
800 à 1500m
200 à 500 ft
< 800m
< 200 ft
Symboles :   Orages  Brouillard  Fortes neiges  Fortes précipitations  Vent > 20 kt
SIGMETs :   Divers  Orages  Givrage  Turbulence  Onde Orograph.  Cendres Volcan.






- Altitude de l'aérodrome : 405 ft
- Code IATA : ODH


EGVO - RAF Odiham

DERNIER METAR :
  • 180650Z 33010KT 8000 BR SCT005 SCT008 04/04 Q1015 RMK YLO1

METARs EXPIRÉS :
  • 180550Z 32010KT 9999 FEW005 04/03 Q1015 RMK BLU
  • 180450Z 33009KT 9999 FEW011 04/03 Q1014 RMK BLU
  • 180350Z 34010KT 9999 FEW015 SCT034 06/05 Q1014 RMK BLU

TAF TAF EGVO
Valide du 18 à 06h jusqu'au 18 à 18h UTC


180448Z 1806/1818 34010KT 9999 FEW005 SCT030
PROB40
TEMPO 1806/1810 SCT005
PROB40
TEMPO 1810/1814 SCT010
PROB40
TEMPO 1814/1817 SCT018



MET'MAP, la Météo Aéronautique d'un coup d'oeil ! - Copyright ORBIFLY Décembre 2007 - Disclaimer

ORBIFLY MET'MAP TEAM :

Programmation & Développement : Alexandra Zaïnal
Conception & Développement : Baudouin d'Aumeries
Co-Programmation & Développement : Marc-Olivier Méhu
Soutien technique & logistique : Manuel Goepfert

Contact : metmap@orbifly.com




SOURCES & CREDITS :

   NOAA